sensor_id;sensor_type;location;lat;lon;timestamp;P1;durP1;ratioP1;P2;durP2;ratioP2
16954;SDS011;8594;52.052;8.354;2023-06-14T00:00:00;7.60;;;2.33;;
16954;SDS011;8594;52.052;8.354;2023-06-14T00:02:29;5.13;;;2.90;;
16954;SDS011;8594;52.052;8.354;2023-06-14T00:04:55;4.97;;;3.10;;
16954;SDS011;8594;52.052;8.354;2023-06-14T00:07:34;9.07;;;3.00;;
16954;SDS011;8594;52.052;8.354;2023-06-14T00:10:03;5.70;;;2.60;;
16954;SDS011;8594;52.052;8.354;2023-06-14T00:12:31;5.57;;;2.70;;
16954;SDS011;8594;52.052;8.354;2023-06-14T00:14:58;9.90;;;3.10;;
16954;SDS011;8594;52.052;8.354;2023-06-14T00:17:26;4.60;;;2.50;;
16954;SDS011;8594;52.052;8.354;2023-06-14T00:19:55;7.17;;;3.13;;
16954;SDS011;8594;52.052;8.354;2023-06-14T00:22:22;3.90;;;2.70;;
16954;SDS011;8594;52.052;8.354;2023-06-14T00:24:51;7.67;;;3.17;;
16954;SDS011;8594;52.052;8.354;2023-06-14T00:27:18;6.23;;;2.77;;
16954;SDS011;8594;52.052;8.354;2023-06-14T00:29:45;8.23;;;2.83;;
16954;SDS011;8594;52.052;8.354;2023-06-14T00:32:12;5.67;;;3.03;;
16954;SDS011;8594;52.052;8.354;2023-06-14T00:34:38;5.73;;;2.83;;
16954;SDS011;8594;52.052;8.354;2023-06-14T00:37:05;8.50;;;3.00;;
16954;SDS011;8594;52.052;8.354;2023-06-14T00:39:32;5.67;;;3.07;;
16954;SDS011;8594;52.052;8.354;2023-06-14T00:42:01;6.23;;;3.00;;
16954;SDS011;8594;52.052;8.354;2023-06-14T00:44:29;3.83;;;2.40;;
16954;SDS011;8594;52.052;8.354;2023-06-14T00:46:55;6.37;;;2.53;;
16954;SDS011;8594;52.052;8.354;2023-06-14T00:49:22;8.10;;;2.87;;
16954;SDS011;8594;52.052;8.354;2023-06-14T00:51:50;7.23;;;2.80;;
16954;SDS011;8594;52.052;8.354;2023-06-14T00:54:17;4.17;;;2.60;;
16954;SDS011;8594;52.052;8.354;2023-06-14T00:56:43;7.47;;;2.63;;
16954;SDS011;8594;52.052;8.354;2023-06-14T00:59:12;7.33;;;2.73;;
16954;SDS011;8594;52.052;8.354;2023-06-14T01:01:40;12.57;;;3.00;;
16954;SDS011;8594;52.052;8.354;2023-06-14T01:04:07;5.00;;;2.83;;
16954;SDS011;8594;52.052;8.354;2023-06-14T01:06:35;6.07;;;2.80;;
16954;SDS011;8594;52.052;8.354;2023-06-14T01:09:15;6.10;;;3.10;;
16954;SDS011;8594;52.052;8.354;2023-06-14T01:11:50;8.67;;;3.13;;
16954;SDS011;8594;52.052;8.354;2023-06-14T01:14:39;9.97;;;3.07;;
16954;SDS011;8594;52.052;8.354;2023-06-14T01:17:07;8.17;;;2.80;;
16954;SDS011;8594;52.052;8.354;2023-06-14T01:19:40;5.13;;;2.77;;
16954;SDS011;8594;52.052;8.354;2023-06-14T01:22:07;7.03;;;2.80;;
16954;SDS011;8594;52.052;8.354;2023-06-14T01:24:36;8.40;;;3.00;;
16954;SDS011;8594;52.052;8.354;2023-06-14T01:27:04;9.40;;;3.10;;
16954;SDS011;8594;52.052;8.354;2023-06-14T01:29:33;5.60;;;2.40;;
16954;SDS011;8594;52.052;8.354;2023-06-14T01:32:01;6.83;;;2.80;;
16954;SDS011;8594;52.052;8.354;2023-06-14T01:34:29;7.37;;;2.83;;
16954;SDS011;8594;52.052;8.354;2023-06-14T01:36:57;8.90;;;2.97;;
16954;SDS011;8594;52.052;8.354;2023-06-14T01:39:27;5.00;;;2.73;;
16954;SDS011;8594;52.052;8.354;2023-06-14T01:41:57;4.57;;;2.90;;
16954;SDS011;8594;52.052;8.354;2023-06-14T01:44:25;8.63;;;3.30;;
16954;SDS011;8594;52.052;8.354;2023-06-14T01:46:55;5.97;;;2.57;;
16954;SDS011;8594;52.052;8.354;2023-06-14T01:49:22;6.40;;;3.03;;
16954;SDS011;8594;52.052;8.354;2023-06-14T01:51:49;6.53;;;2.83;;
16954;SDS011;8594;52.052;8.354;2023-06-14T01:54:16;7.00;;;2.83;;
16954;SDS011;8594;52.052;8.354;2023-06-14T01:56:43;4.90;;;3.23;;
16954;SDS011;8594;52.052;8.354;2023-06-14T01:59:11;6.37;;;2.83;;
16954;SDS011;8594;52.052;8.354;2023-06-14T02:01:38;5.77;;;2.60;;
16954;SDS011;8594;52.052;8.354;2023-06-14T02:04:05;6.97;;;3.00;;
16954;SDS011;8594;52.052;8.354;2023-06-14T02:06:32;7.83;;;2.83;;
16954;SDS011;8594;52.052;8.354;2023-06-14T02:09:00;10.13;;;3.03;;
16954;SDS011;8594;52.052;8.354;2023-06-14T02:11:27;5.23;;;3.03;;
16954;SDS011;8594;52.052;8.354;2023-06-14T02:13:54;6.83;;;3.00;;
16954;SDS011;8594;52.052;8.354;2023-06-14T02:16:22;5.13;;;3.07;;
16954;SDS011;8594;52.052;8.354;2023-06-14T02:18:49;6.07;;;2.83;;
16954;SDS011;8594;52.052;8.354;2023-06-14T02:21:17;6.23;;;2.90;;
16954;SDS011;8594;52.052;8.354;2023-06-14T02:23:44;4.13;;;2.60;;
16954;SDS011;8594;52.052;8.354;2023-06-14T02:26:11;8.03;;;3.10;;
16954;SDS011;8594;52.052;8.354;2023-06-14T02:28:37;7.47;;;3.20;;
16954;SDS011;8594;52.052;8.354;2023-06-14T02:31:04;6.83;;;3.20;;
16954;SDS011;8594;52.052;8.354;2023-06-14T02:33:32;9.83;;;3.17;;
16954;SDS011;8594;52.052;8.354;2023-06-14T02:36:00;10.30;;;3.70;;
16954;SDS011;8594;52.052;8.354;2023-06-14T02:38:28;3.83;;;2.70;;
16954;SDS011;8594;52.052;8.354;2023-06-14T02:40:55;9.13;;;3.10;;
16954;SDS011;8594;52.052;8.354;2023-06-14T02:43:24;6.30;;;3.50;;
16954;SDS011;8594;52.052;8.354;2023-06-14T02:45:51;6.10;;;2.93;;
16954;SDS011;8594;52.052;8.354;2023-06-14T02:48:17;7.27;;;3.20;;
16954;SDS011;8594;52.052;8.354;2023-06-14T02:50:45;6.53;;;3.40;;
16954;SDS011;8594;52.052;8.354;2023-06-14T02:53:12;5.43;;;2.87;;
16954;SDS011;8594;52.052;8.354;2023-06-14T02:55:39;6.07;;;3.23;;
16954;SDS011;8594;52.052;8.354;2023-06-14T02:58:06;6.83;;;3.43;;
16954;SDS011;8594;52.052;8.354;2023-06-14T03:00:32;6.87;;;3.07;;
16954;SDS011;8594;52.052;8.354;2023-06-14T03:03:00;9.33;;;3.50;;
16954;SDS011;8594;52.052;8.354;2023-06-14T03:05:27;11.07;;;3.20;;
16954;SDS011;8594;52.052;8.354;2023-06-14T03:07:55;3.97;;;2.80;;
16954;SDS011;8594;52.052;8.354;2023-06-14T03:10:22;9.17;;;3.00;;
16954;SDS011;8594;52.052;8.354;2023-06-14T03:12:48;6.40;;;3.27;;
16954;SDS011;8594;52.052;8.354;2023-06-14T03:15:16;6.57;;;3.20;;
16954;SDS011;8594;52.052;8.354;2023-06-14T03:17:44;7.50;;;3.63;;
16954;SDS011;8594;52.052;8.354;2023-06-14T03:20:14;7.53;;;3.20;;
16954;SDS011;8594;52.052;8.354;2023-06-14T03:22:40;5.80;;;3.50;;
16954;SDS011;8594;52.052;8.354;2023-06-14T03:25:12;10.37;;;3.50;;
16954;SDS011;8594;52.052;8.354;2023-06-14T03:27:40;8.17;;;3.33;;
16954;SDS011;8594;52.052;8.354;2023-06-14T03:30:07;6.03;;;2.80;;
16954;SDS011;8594;52.052;8.354;2023-06-14T03:32:35;3.73;;;2.50;;
16954;SDS011;8594;52.052;8.354;2023-06-14T03:35:01;7.43;;;3.27;;
16954;SDS011;8594;52.052;8.354;2023-06-14T03:37:29;5.40;;;2.93;;
16954;SDS011;8594;52.052;8.354;2023-06-14T03:39:55;4.10;;;2.63;;
16954;SDS011;8594;52.052;8.354;2023-06-14T03:42:23;9.13;;;3.23;;
16954;SDS011;8594;52.052;8.354;2023-06-14T03:44:50;8.43;;;2.87;;
16954;SDS011;8594;52.052;8.354;2023-06-14T03:47:17;5.13;;;2.60;;
16954;SDS011;8594;52.052;8.354;2023-06-14T03:49:44;4.23;;;2.80;;
16954;SDS011;8594;52.052;8.354;2023-06-14T03:52:11;7.47;;;2.97;;
16954;SDS011;8594;52.052;8.354;2023-06-14T03:54:39;6.63;;;3.00;;
16954;SDS011;8594;52.052;8.354;2023-06-14T03:57:06;5.73;;;3.20;;
16954;SDS011;8594;52.052;8.354;2023-06-14T03:59:34;5.20;;;3.10;;
16954;SDS011;8594;52.052;8.354;2023-06-14T04:02:01;4.77;;;2.83;;
16954;SDS011;8594;52.052;8.354;2023-06-14T04:04:28;9.03;;;3.03;;
16954;SDS011;8594;52.052;8.354;2023-06-14T04:06:55;5.90;;;2.80;;
16954;SDS011;8594;52.052;8.354;2023-06-14T04:09:23;8.70;;;3.17;;
16954;SDS011;8594;52.052;8.354;2023-06-14T04:11:50;7.77;;;3.27;;
16954;SDS011;8594;52.052;8.354;2023-06-14T04:14:18;8.23;;;3.00;;
16954;SDS011;8594;52.052;8.354;2023-06-14T04:16:46;7.70;;;3.77;;
16954;SDS011;8594;52.052;8.354;2023-06-14T04:19:14;7.00;;;3.33;;
16954;SDS011;8594;52.052;8.354;2023-06-14T04:21:41;8.07;;;2.90;;
16954;SDS011;8594;52.052;8.354;2023-06-14T04:24:08;6.10;;;3.20;;
16954;SDS011;8594;52.052;8.354;2023-06-14T04:26:38;7.27;;;2.70;;
16954;SDS011;8594;52.052;8.354;2023-06-14T04:29:05;7.63;;;3.43;;
16954;SDS011;8594;52.052;8.354;2023-06-14T04:31:33;6.07;;;2.80;;
16954;SDS011;8594;52.052;8.354;2023-06-14T04:34:03;5.07;;;3.00;;
16954;SDS011;8594;52.052;8.354;2023-06-14T04:36:31;4.87;;;3.00;;
16954;SDS011;8594;52.052;8.354;2023-06-14T04:38:59;6.13;;;3.20;;
16954;SDS011;8594;52.052;8.354;2023-06-14T04:41:28;6.23;;;2.97;;
16954;SDS011;8594;52.052;8.354;2023-06-14T04:43:55;7.73;;;3.33;;
16954;SDS011;8594;52.052;8.354;2023-06-14T04:46:26;5.27;;;3.10;;
16954;SDS011;8594;52.052;8.354;2023-06-14T04:48:53;6.00;;;3.17;;
16954;SDS011;8594;52.052;8.354;2023-06-14T04:51:23;9.03;;;3.30;;
16954;SDS011;8594;52.052;8.354;2023-06-14T04:53:55;9.47;;;3.13;;
16954;SDS011;8594;52.052;8.354;2023-06-14T04:56:23;7.43;;;3.10;;
16954;SDS011;8594;52.052;8.354;2023-06-14T04:58:51;6.60;;;3.20;;
16954;SDS011;8594;52.052;8.354;2023-06-14T05:01:18;6.10;;;2.67;;
16954;SDS011;8594;52.052;8.354;2023-06-14T05:03:46;8.60;;;3.00;;
16954;SDS011;8594;52.052;8.354;2023-06-14T05:06:14;5.43;;;3.20;;
16954;SDS011;8594;52.052;8.354;2023-06-14T05:08:42;10.47;;;3.00;;
16954;SDS011;8594;52.052;8.354;2023-06-14T05:11:09;7.90;;;2.47;;
16954;SDS011;8594;52.052;8.354;2023-06-14T05:13:35;4.13;;;2.50;;
16954;SDS011;8594;52.052;8.354;2023-06-14T05:16:02;9.67;;;2.90;;
16954;SDS011;8594;52.052;8.354;2023-06-14T05:18:29;7.13;;;3.20;;
16954;SDS011;8594;52.052;8.354;2023-06-14T05:20:59;7.10;;;3.13;;
16954;SDS011;8594;52.052;8.354;2023-06-14T05:23:26;11.27;;;3.93;;
16954;SDS011;8594;52.052;8.354;2023-06-14T05:25:54;8.00;;;3.40;;
16954;SDS011;8594;52.052;8.354;2023-06-14T05:28:21;6.57;;;2.90;;
16954;SDS011;8594;52.052;8.354;2023-06-14T05:30:48;6.57;;;3.57;;
16954;SDS011;8594;52.052;8.354;2023-06-14T05:33:15;8.07;;;2.77;;
16954;SDS011;8594;52.052;8.354;2023-06-14T05:35:42;8.43;;;3.23;;
16954;SDS011;8594;52.052;8.354;2023-06-14T05:38:09;7.80;;;2.60;;
16954;SDS011;8594;52.052;8.354;2023-06-14T05:40:36;7.30;;;2.80;;
16954;SDS011;8594;52.052;8.354;2023-06-14T05:43:04;4.90;;;2.43;;
16954;SDS011;8594;52.052;8.354;2023-06-14T05:45:30;3.13;;;2.43;;
16954;SDS011;8594;52.052;8.354;2023-06-14T05:47:57;11.53;;;2.87;;
16954;SDS011;8594;52.052;8.354;2023-06-14T05:50:24;2.73;;;2.17;;
16954;SDS011;8594;52.052;8.354;2023-06-14T05:52:51;6.33;;;2.83;;
16954;SDS011;8594;52.052;8.354;2023-06-14T05:55:19;4.27;;;2.40;;
16954;SDS011;8594;52.052;8.354;2023-06-14T05:57:45;6.23;;;2.70;;
16954;SDS011;8594;52.052;8.354;2023-06-14T06:00:15;3.57;;;2.27;;
16954;SDS011;8594;52.052;8.354;2023-06-14T06:02:44;4.37;;;2.20;;
16954;SDS011;8594;52.052;8.354;2023-06-14T06:05:12;4.37;;;2.30;;
16954;SDS011;8594;52.052;8.354;2023-06-14T06:07:40;3.80;;;2.20;;
16954;SDS011;8594;52.052;8.354;2023-06-14T06:10:09;4.30;;;2.30;;
16954;SDS011;8594;52.052;8.354;2023-06-14T06:12:36;5.83;;;2.60;;
16954;SDS011;8594;52.052;8.354;2023-06-14T06:15:03;3.17;;;2.10;;
16954;SDS011;8594;52.052;8.354;2023-06-14T06:17:32;3.47;;;2.10;;
16954;SDS011;8594;52.052;8.354;2023-06-14T06:20:00;5.40;;;2.17;;
16954;SDS011;8594;52.052;8.354;2023-06-14T06:22:27;6.00;;;2.37;;
16954;SDS011;8594;52.052;8.354;2023-06-14T06:24:54;8.77;;;2.43;;
16954;SDS011;8594;52.052;8.354;2023-06-14T06:27:21;4.20;;;2.17;;
16954;SDS011;8594;52.052;8.354;2023-06-14T06:29:47;7.00;;;2.30;;
16954;SDS011;8594;52.052;8.354;2023-06-14T06:32:14;4.23;;;2.10;;
16954;SDS011;8594;52.052;8.354;2023-06-14T06:34:43;3.30;;;1.90;;
16954;SDS011;8594;52.052;8.354;2023-06-14T06:37:10;4.20;;;2.00;;
16954;SDS011;8594;52.052;8.354;2023-06-14T06:39:36;3.80;;;2.20;;
16954;SDS011;8594;52.052;8.354;2023-06-14T06:42:03;5.83;;;2.13;;
16954;SDS011;8594;52.052;8.354;2023-06-14T06:44:31;6.87;;;2.13;;
16954;SDS011;8594;52.052;8.354;2023-06-14T06:46:58;5.43;;;2.10;;
16954;SDS011;8594;52.052;8.354;2023-06-14T06:49:25;3.40;;;1.90;;
16954;SDS011;8594;52.052;8.354;2023-06-14T06:52:03;3.97;;;1.87;;
16954;SDS011;8594;52.052;8.354;2023-06-14T06:54:32;4.67;;;1.90;;
16954;SDS011;8594;52.052;8.354;2023-06-14T06:56:59;2.27;;;1.63;;
16954;SDS011;8594;52.052;8.354;2023-06-14T06:59:27;11.93;;;2.20;;
16954;SDS011;8594;52.052;8.354;2023-06-14T07:01:53;2.97;;;1.80;;
16954;SDS011;8594;52.052;8.354;2023-06-14T07:04:20;7.73;;;1.57;;
16954;SDS011;8594;52.052;8.354;2023-06-14T07:06:47;3.07;;;1.40;;
16954;SDS011;8594;52.052;8.354;2023-06-14T07:09:15;2.03;;;1.27;;
16954;SDS011;8594;52.052;8.354;2023-06-14T07:11:44;4.13;;;1.50;;
16954;SDS011;8594;52.052;8.354;2023-06-14T07:14:12;3.13;;;1.60;;
16954;SDS011;8594;52.052;8.354;2023-06-14T07:16:39;2.80;;;1.50;;
16954;SDS011;8594;52.052;8.354;2023-06-14T07:19:06;4.50;;;2.10;;
16954;SDS011;8594;52.052;8.354;2023-06-14T07:21:34;3.07;;;1.50;;
16954;SDS011;8594;52.052;8.354;2023-06-14T07:24:02;2.00;;;1.27;;
16954;SDS011;8594;52.052;8.354;2023-06-14T07:26:32;2.93;;;1.70;;
16954;SDS011;8594;52.052;8.354;2023-06-14T07:29:00;3.57;;;1.87;;
16954;SDS011;8594;52.052;8.354;2023-06-14T07:31:27;4.30;;;1.60;;
16954;SDS011;8594;52.052;8.354;2023-06-14T07:33:53;9.00;;;2.60;;
16954;SDS011;8594;52.052;8.354;2023-06-14T07:36:20;5.97;;;1.90;;
16954;SDS011;8594;52.052;8.354;2023-06-14T07:38:47;8.70;;;1.83;;
16954;SDS011;8594;52.052;8.354;2023-06-14T07:41:14;5.23;;;1.90;;
16954;SDS011;8594;52.052;8.354;2023-06-14T07:43:43;1.63;;;1.50;;
16954;SDS011;8594;52.052;8.354;2023-06-14T07:46:10;2.10;;;1.30;;
16954;SDS011;8594;52.052;8.354;2023-06-14T07:48:36;6.20;;;1.77;;
16954;SDS011;8594;52.052;8.354;2023-06-14T07:51:03;4.03;;;1.90;;
16954;SDS011;8594;52.052;8.354;2023-06-14T07:53:30;4.90;;;1.80;;
16954;SDS011;8594;52.052;8.354;2023-06-14T07:55:57;5.33;;;1.90;;
16954;SDS011;8594;52.052;8.354;2023-06-14T07:58:24;2.97;;;1.77;;
16954;SDS011;8594;52.052;8.354;2023-06-14T08:00:53;7.47;;;2.17;;
16954;SDS011;8594;52.052;8.354;2023-06-14T08:03:19;4.57;;;1.70;;
16954;SDS011;8594;52.052;8.354;2023-06-14T08:05:47;3.93;;;1.80;;
16954;SDS011;8594;52.052;8.354;2023-06-14T08:08:14;4.30;;;2.40;;
16954;SDS011;8594;52.052;8.354;2023-06-14T08:10:41;7.57;;;2.00;;
16954;SDS011;8594;52.052;8.354;2023-06-14T08:13:08;29.23;;;3.10;;
16954;SDS011;8594;52.052;8.354;2023-06-14T08:15:35;3.60;;;2.13;;
16954;SDS011;8594;52.052;8.354;2023-06-14T08:18:03;6.13;;;2.13;;
16954;SDS011;8594;52.052;8.354;2023-06-14T08:20:30;13.07;;;2.23;;
16954;SDS011;8594;52.052;8.354;2023-06-14T08:22:58;7.20;;;1.63;;
16954;SDS011;8594;52.052;8.354;2023-06-14T08:25:24;6.83;;;1.80;;
16954;SDS011;8594;52.052;8.354;2023-06-14T08:27:51;2.80;;;1.47;;
16954;SDS011;8594;52.052;8.354;2023-06-14T08:30:18;6.67;;;1.50;;
16954;SDS011;8594;52.052;8.354;2023-06-14T08:32:45;16.97;;;1.90;;
16954;SDS011;8594;52.052;8.354;2023-06-14T08:35:13;2.90;;;1.60;;
16954;SDS011;8594;52.052;8.354;2023-06-14T08:37:41;2.20;;;1.40;;
16954;SDS011;8594;52.052;8.354;2023-06-14T08:40:18;5.27;;;2.00;;
16954;SDS011;8594;52.052;8.354;2023-06-14T08:42:50;7.77;;;1.63;;
16954;SDS011;8594;52.052;8.354;2023-06-14T08:45:18;4.17;;;1.40;;
16954;SDS011;8594;52.052;8.354;2023-06-14T08:47:46;6.40;;;1.73;;
16954;SDS011;8594;52.052;8.354;2023-06-14T08:50:19;5.67;;;1.83;;
16954;SDS011;8594;52.052;8.354;2023-06-14T08:52:49;2.97;;;1.57;;
16954;SDS011;8594;52.052;8.354;2023-06-14T08:55:22;4.13;;;1.57;;
16954;SDS011;8594;52.052;8.354;2023-06-14T08:57:52;3.53;;;1.60;;
16954;SDS011;8594;52.052;8.354;2023-06-14T09:00:22;2.53;;;1.77;;
16954;SDS011;8594;52.052;8.354;2023-06-14T09:02:50;12.13;;;3.63;;
16954;SDS011;8594;52.052;8.354;2023-06-14T09:05:22;3.47;;;1.87;;
16954;SDS011;8594;52.052;8.354;2023-06-14T09:07:50;2.10;;;1.40;;
16954;SDS011;8594;52.052;8.354;2023-06-14T09:10:17;20.43;;;4.03;;
16954;SDS011;8594;52.052;8.354;2023-06-14T09:12:46;11.70;;;2.10;;
16954;SDS011;8594;52.052;8.354;2023-06-14T09:15:13;19.53;;;3.40;;
16954;SDS011;8594;52.052;8.354;2023-06-14T09:17:40;67.53;;;5.83;;
16954;SDS011;8594;52.052;8.354;2023-06-14T09:20:07;3.73;;;1.83;;
16954;SDS011;8594;52.052;8.354;2023-06-14T09:22:39;2.50;;;1.63;;
16954;SDS011;8594;52.052;8.354;2023-06-14T09:25:06;2.50;;;1.80;;
16954;SDS011;8594;52.052;8.354;2023-06-14T09:27:34;2.87;;;1.60;;
16954;SDS011;8594;52.052;8.354;2023-06-14T09:30:01;2.37;;;1.50;;
16954;SDS011;8594;52.052;8.354;2023-06-14T09:32:29;2.70;;;1.73;;
16954;SDS011;8594;52.052;8.354;2023-06-14T09:34:56;5.87;;;2.00;;
16954;SDS011;8594;52.052;8.354;2023-06-14T09:37:30;3.50;;;1.80;;
16954;SDS011;8594;52.052;8.354;2023-06-14T09:39:59;3.37;;;1.53;;
16954;SDS011;8594;52.052;8.354;2023-06-14T09:42:26;3.40;;;1.70;;
16954;SDS011;8594;52.052;8.354;2023-06-14T09:44:55;2.20;;;1.47;;
16954;SDS011;8594;52.052;8.354;2023-06-14T09:47:23;3.03;;;1.60;;
16954;SDS011;8594;52.052;8.354;2023-06-14T09:49:50;1.97;;;1.73;;
16954;SDS011;8594;52.052;8.354;2023-06-14T09:52:20;3.37;;;2.07;;
16954;SDS011;8594;52.052;8.354;2023-06-14T09:54:49;3.80;;;1.87;;
16954;SDS011;8594;52.052;8.354;2023-06-14T09:57:20;5.03;;;1.70;;
16954;SDS011;8594;52.052;8.354;2023-06-14T09:59:49;2.67;;;1.67;;
16954;SDS011;8594;52.052;8.354;2023-06-14T10:02:25;3.03;;;1.70;;
16954;SDS011;8594;52.052;8.354;2023-06-14T10:04:56;4.60;;;1.80;;
16954;SDS011;8594;52.052;8.354;2023-06-14T10:07:32;5.97;;;1.83;;
16954;SDS011;8594;52.052;8.354;2023-06-14T10:10:06;3.87;;;1.77;;
16954;SDS011;8594;52.052;8.354;2023-06-14T10:12:36;2.67;;;1.87;;
16954;SDS011;8594;52.052;8.354;2023-06-14T10:15:04;2.63;;;1.80;;
16954;SDS011;8594;52.052;8.354;2023-06-14T10:17:35;4.80;;;1.80;;
16954;SDS011;8594;52.052;8.354;2023-06-14T10:20:17;4.37;;;1.83;;
16954;SDS011;8594;52.052;8.354;2023-06-14T10:22:55;2.40;;;1.60;;
16954;SDS011;8594;52.052;8.354;2023-06-14T10:25:28;4.00;;;1.77;;
16954;SDS011;8594;52.052;8.354;2023-06-14T10:28:05;4.90;;;1.70;;
16954;SDS011;8594;52.052;8.354;2023-06-14T10:33:29;2.03;;;1.50;;
16954;SDS011;8594;52.052;8.354;2023-06-14T10:36:06;2.80;;;1.70;;
16954;SDS011;8594;52.052;8.354;2023-06-14T10:38:59;3.70;;;1.80;;
16954;SDS011;8594;52.052;8.354;2023-06-14T10:41:29;4.63;;;1.73;;
16954;SDS011;8594;52.052;8.354;2023-06-14T10:44:15;3.63;;;1.70;;
16954;SDS011;8594;52.052;8.354;2023-06-14T10:47:06;4.93;;;2.00;;
16954;SDS011;8594;52.052;8.354;2023-06-14T10:49:36;6.00;;;1.83;;
16954;SDS011;8594;52.052;8.354;2023-06-14T10:52:08;3.73;;;1.87;;
16954;SDS011;8594;52.052;8.354;2023-06-14T10:54:56;4.47;;;1.87;;
16954;SDS011;8594;52.052;8.354;2023-06-14T10:57:36;6.10;;;2.00;;
16954;SDS011;8594;52.052;8.354;2023-06-14T11:00:07;3.57;;;1.60;;
16954;SDS011;8594;52.052;8.354;2023-06-14T11:06:11;7.37;;;2.50;;
16954;SDS011;8594;52.052;8.354;2023-06-14T11:11:55;3.23;;;1.80;;
16954;SDS011;8594;52.052;8.354;2023-06-14T11:14:23;5.53;;;2.23;;
16954;SDS011;8594;52.052;8.354;2023-06-14T11:16:51;3.73;;;1.93;;
16954;SDS011;8594;52.052;8.354;2023-06-14T11:19:18;6.23;;;2.23;;
16954;SDS011;8594;52.052;8.354;2023-06-14T11:21:47;4.00;;;1.90;;
16954;SDS011;8594;52.052;8.354;2023-06-14T11:24:14;3.80;;;2.03;;
16954;SDS011;8594;52.052;8.354;2023-06-14T11:26:41;2.93;;;1.97;;
16954;SDS011;8594;52.052;8.354;2023-06-14T11:29:07;3.40;;;1.97;;
16954;SDS011;8594;52.052;8.354;2023-06-14T11:31:34;3.23;;;2.00;;
16954;SDS011;8594;52.052;8.354;2023-06-14T11:34:02;3.60;;;2.00;;
16954;SDS011;8594;52.052;8.354;2023-06-14T11:36:31;3.50;;;2.20;;
16954;SDS011;8594;52.052;8.354;2023-06-14T11:39:00;8.37;;;2.40;;
16954;SDS011;8594;52.052;8.354;2023-06-14T11:41:37;4.47;;;1.90;;
16954;SDS011;8594;52.052;8.354;2023-06-14T11:44:07;3.67;;;2.10;;
16954;SDS011;8594;52.052;8.354;2023-06-14T11:46:34;8.30;;;1.77;;
16954;SDS011;8594;52.052;8.354;2023-06-14T11:49:03;2.90;;;1.70;;
16954;SDS011;8594;52.052;8.354;2023-06-14T11:51:32;2.37;;;1.90;;
16954;SDS011;8594;52.052;8.354;2023-06-14T11:53:59;3.30;;;2.10;;
16954;SDS011;8594;52.052;8.354;2023-06-14T11:56:27;4.13;;;1.97;;
16954;SDS011;8594;52.052;8.354;2023-06-14T11:58:54;2.63;;;1.70;;
16954;SDS011;8594;52.052;8.354;2023-06-14T12:01:22;2.37;;;1.93;;
16954;SDS011;8594;52.052;8.354;2023-06-14T12:03:51;2.57;;;1.80;;
16954;SDS011;8594;52.052;8.354;2023-06-14T12:06:26;3.30;;;1.73;;
16954;SDS011;8594;52.052;8.354;2023-06-14T12:08:58;3.37;;;1.60;;
16954;SDS011;8594;52.052;8.354;2023-06-14T12:11:28;3.60;;;1.90;;
16954;SDS011;8594;52.052;8.354;2023-06-14T12:13:59;4.40;;;2.20;;
16954;SDS011;8594;52.052;8.354;2023-06-14T12:16:30;6.57;;;2.17;;
16954;SDS011;8594;52.052;8.354;2023-06-14T12:19:00;4.97;;;2.10;;
16954;SDS011;8594;52.052;8.354;2023-06-14T12:21:34;3.33;;;2.20;;
16954;SDS011;8594;52.052;8.354;2023-06-14T12:24:05;6.33;;;1.93;;
16954;SDS011;8594;52.052;8.354;2023-06-14T12:26:32;2.67;;;1.90;;
16954;SDS011;8594;52.052;8.354;2023-06-14T12:29:04;3.73;;;2.07;;
16954;SDS011;8594;52.052;8.354;2023-06-14T12:31:31;2.87;;;2.30;;
16954;SDS011;8594;52.052;8.354;2023-06-14T12:33:58;6.27;;;2.20;;
16954;SDS011;8594;52.052;8.354;2023-06-14T12:36:25;5.23;;;2.30;;
16954;SDS011;8594;52.052;8.354;2023-06-14T12:38:53;7.00;;;2.43;;
16954;SDS011;8594;52.052;8.354;2023-06-14T12:41:21;3.97;;;2.03;;
16954;SDS011;8594;52.052;8.354;2023-06-14T12:43:48;3.33;;;2.07;;
16954;SDS011;8594;52.052;8.354;2023-06-14T12:46:14;3.97;;;1.97;;
16954;SDS011;8594;52.052;8.354;2023-06-14T12:48:41;4.60;;;2.43;;
16954;SDS011;8594;52.052;8.354;2023-06-14T12:51:08;6.13;;;2.50;;
16954;SDS011;8594;52.052;8.354;2023-06-14T12:53:35;3.47;;;2.10;;
16954;SDS011;8594;52.052;8.354;2023-06-14T12:56:03;3.27;;;2.03;;
16954;SDS011;8594;52.052;8.354;2023-06-14T12:58:30;3.07;;;2.03;;
16954;SDS011;8594;52.052;8.354;2023-06-14T13:00:57;6.17;;;2.30;;
16954;SDS011;8594;52.052;8.354;2023-06-14T13:03:24;3.87;;;2.20;;
16954;SDS011;8594;52.052;8.354;2023-06-14T13:05:50;3.37;;;1.90;;
16954;SDS011;8594;52.052;8.354;2023-06-14T13:08:17;2.67;;;1.90;;
16954;SDS011;8594;52.052;8.354;2023-06-14T13:10:44;2.53;;;1.87;;
16954;SDS011;8594;52.052;8.354;2023-06-14T13:13:12;5.03;;;2.00;;
16954;SDS011;8594;52.052;8.354;2023-06-14T13:15:39;1.83;;;1.60;;
16954;SDS011;8594;52.052;8.354;2023-06-14T13:18:06;2.50;;;1.87;;
16954;SDS011;8594;52.052;8.354;2023-06-14T13:20:33;3.37;;;1.80;;
16954;SDS011;8594;52.052;8.354;2023-06-14T13:22:59;2.83;;;1.73;;
16954;SDS011;8594;52.052;8.354;2023-06-14T13:25:28;3.53;;;1.70;;
16954;SDS011;8594;52.052;8.354;2023-06-14T13:27:55;1.73;;;1.50;;
16954;SDS011;8594;52.052;8.354;2023-06-14T13:30:23;2.40;;;1.80;;
16954;SDS011;8594;52.052;8.354;2023-06-14T13:32:50;4.10;;;2.10;;
16954;SDS011;8594;52.052;8.354;2023-06-14T13:35:17;3.40;;;1.80;;
16954;SDS011;8594;52.052;8.354;2023-06-14T13:37:45;2.37;;;1.70;;
16954;SDS011;8594;52.052;8.354;2023-06-14T13:40:12;2.97;;;1.90;;
16954;SDS011;8594;52.052;8.354;2023-06-14T13:42:39;3.67;;;1.77;;
16954;SDS011;8594;52.052;8.354;2023-06-14T13:45:06;2.10;;;1.90;;
16954;SDS011;8594;52.052;8.354;2023-06-14T13:47:36;2.30;;;1.70;;
16954;SDS011;8594;52.052;8.354;2023-06-14T13:50:05;3.40;;;1.60;;
16954;SDS011;8594;52.052;8.354;2023-06-14T13:52:33;2.53;;;1.73;;
16954;SDS011;8594;52.052;8.354;2023-06-14T13:55:00;4.50;;;1.90;;
16954;SDS011;8594;52.052;8.354;2023-06-14T13:57:27;2.93;;;1.67;;
16954;SDS011;8594;52.052;8.354;2023-06-14T13:59:54;3.07;;;1.60;;
16954;SDS011;8594;52.052;8.354;2023-06-14T14:02:26;9.97;;;2.50;;
16954;SDS011;8594;52.052;8.354;2023-06-14T14:04:55;2.60;;;1.80;;
16954;SDS011;8594;52.052;8.354;2023-06-14T14:07:22;3.13;;;2.10;;
16954;SDS011;8594;52.052;8.354;2023-06-14T14:09:49;3.27;;;2.03;;
16954;SDS011;8594;52.052;8.354;2023-06-14T14:12:16;3.40;;;2.03;;
16954;SDS011;8594;52.052;8.354;2023-06-14T14:14:43;5.07;;;1.90;;
16954;SDS011;8594;52.052;8.354;2023-06-14T14:17:11;3.47;;;2.00;;
16954;SDS011;8594;52.052;8.354;2023-06-14T14:19:38;2.73;;;1.70;;
16954;SDS011;8594;52.052;8.354;2023-06-14T14:22:06;3.23;;;1.97;;
16954;SDS011;8594;52.052;8.354;2023-06-14T14:24:33;3.00;;;2.07;;
16954;SDS011;8594;52.052;8.354;2023-06-14T14:27:01;2.07;;;1.87;;
16954;SDS011;8594;52.052;8.354;2023-06-14T14:29:28;2.67;;;2.17;;
16954;SDS011;8594;52.052;8.354;2023-06-14T14:31:58;3.67;;;2.27;;
16954;SDS011;8594;52.052;8.354;2023-06-14T14:34:27;5.10;;;2.27;;
16954;SDS011;8594;52.052;8.354;2023-06-14T14:36:54;4.13;;;2.20;;
16954;SDS011;8594;52.052;8.354;2023-06-14T14:39:22;5.63;;;2.33;;
16954;SDS011;8594;52.052;8.354;2023-06-14T14:41:49;6.10;;;2.30;;
16954;SDS011;8594;52.052;8.354;2023-06-14T14:44:16;3.13;;;2.00;;
16954;SDS011;8594;52.052;8.354;2023-06-14T14:46:44;5.50;;;2.30;;
16954;SDS011;8594;52.052;8.354;2023-06-14T14:49:11;3.83;;;2.40;;
16954;SDS011;8594;52.052;8.354;2023-06-14T14:51:38;6.20;;;2.57;;
16954;SDS011;8594;52.052;8.354;2023-06-14T14:54:06;10.17;;;2.60;;
16954;SDS011;8594;52.052;8.354;2023-06-14T14:56:36;3.80;;;2.27;;
16954;SDS011;8594;52.052;8.354;2023-06-14T14:59:03;3.00;;;2.30;;
16954;SDS011;8594;52.052;8.354;2023-06-14T15:01:30;5.40;;;2.57;;
16954;SDS011;8594;52.052;8.354;2023-06-14T15:03:57;4.17;;;2.30;;
16954;SDS011;8594;52.052;8.354;2023-06-14T15:06:24;5.57;;;2.80;;
16954;SDS011;8594;52.052;8.354;2023-06-14T15:08:51;2.70;;;2.40;;
16954;SDS011;8594;52.052;8.354;2023-06-14T15:11:18;3.80;;;2.13;;
16954;SDS011;8594;52.052;8.354;2023-06-14T15:13:46;4.60;;;2.53;;
16954;SDS011;8594;52.052;8.354;2023-06-14T15:16:13;4.03;;;2.30;;